createdAt,value
2018-08-27T00:00:25.493Z,-0.43
2018-08-27T00:01:25.959Z,-0.32
2018-08-27T00:02:26.429Z,-0.21
2018-08-27T00:03:26.899Z,-0.20
2018-08-27T00:04:27.369Z,-0.28
2018-08-27T00:05:27.840Z,-0.30
2018-08-27T00:06:28.310Z,-0.36
2018-08-27T00:07:28.777Z,-0.36
2018-08-27T00:08:29.250Z,-0.40
2018-08-27T00:09:29.716Z,-0.47
2018-08-27T00:10:30.190Z,-0.48
2018-08-27T00:11:30.657Z,-0.44
2018-08-27T00:12:31.127Z,-0.40
2018-08-27T00:13:31.598Z,-0.32
2018-08-27T00:14:32.072Z,-0.30
2018-08-27T00:15:32.537Z,-0.30
2018-08-27T00:16:33.008Z,-0.25
2018-08-27T00:17:33.483Z,-0.29
2018-08-27T00:18:34.002Z,-0.23
2018-08-27T00:19:34.419Z,-0.27
2018-08-27T00:20:34.892Z,-0.26
2018-08-27T00:21:35.361Z,-0.22
2018-08-27T00:22:35.833Z,-0.22
2018-08-27T00:23:36.304Z,-0.32
2018-08-27T00:24:36.775Z,-0.27
2018-08-27T00:25:37.253Z,-0.30
2018-08-27T00:26:37.718Z,-0.35
2018-08-27T00:27:38.203Z,-0.30
2018-08-27T00:28:38.656Z,-0.26
2018-08-27T00:29:39.131Z,-0.22
2018-08-27T00:30:39.604Z,-0.18
2018-08-27T00:31:40.073Z,-0.16
2018-08-27T00:32:40.542Z,-0.24
2018-08-27T00:33:41.016Z,-0.30
2018-08-27T00:34:41.487Z,-0.28
2018-08-27T00:35:41.957Z,-0.24
2018-08-27T00:36:42.434Z,-0.31
2018-08-27T00:37:42.921Z,-0.32
2018-08-27T00:38:43.374Z,-0.28
2018-08-27T00:39:43.846Z,-0.36
2018-08-27T00:40:44.318Z,-0.35
2018-08-27T00:41:44.792Z,-0.30
2018-08-27T00:42:45.267Z,-0.28
2018-08-27T00:43:45.735Z,-0.18
2018-08-27T00:44:46.209Z,-0.16
2018-08-27T00:45:46.679Z,-0.08
2018-08-27T00:46:47.154Z,-0.03
2018-08-27T00:47:47.626Z,0.06
2018-08-27T00:48:48.147Z,0.08
2018-08-27T00:49:48.571Z,0.02
2018-08-27T00:50:49.047Z,0.06
2018-08-27T00:51:49.515Z,0.10
2018-08-27T00:52:49.987Z,0.10
2018-08-27T00:53:50.460Z,0.12
2018-08-27T00:54:50.938Z,0.12
2018-08-27T00:55:51.406Z,0.12
2018-08-27T00:56:51.881Z,0.12
2018-08-27T00:57:52.352Z,0.18
2018-08-27T00:58:52.824Z,0.22
2018-08-27T00:59:53.299Z,0.16
2018-08-27T01:00:53.772Z,0.16
2018-08-27T01:01:54.244Z,0.14
2018-08-27T01:02:54.717Z,0.07
2018-08-27T01:03:55.192Z,0.08
2018-08-27T01:04:55.663Z,0.10
2018-08-27T01:05:56.137Z,0.17
2018-08-27T01:06:56.609Z,0.28
2018-08-27T01:07:57.082Z,0.38
2018-08-27T01:08:57.557Z,0.36
2018-08-27T01:09:58.027Z,0.40
2018-08-27T01:10:58.505Z,0.42
2018-08-27T01:11:58.975Z,0.40
2018-08-27T01:12:59.449Z,0.42
2018-08-27T01:13:59.921Z,0.42
2018-08-27T01:15:00.395Z,0.44
2018-08-27T01:16:00.867Z,0.50
2018-08-27T01:17:01.342Z,0.48
2018-08-27T01:18:01.818Z,0.42
2018-08-27T01:19:02.289Z,0.44
2018-08-27T01:20:02.762Z,0.43
2018-08-27T01:21:03.235Z,0.44
2018-08-27T01:22:03.707Z,0.38
2018-08-27T01:23:04.182Z,0.32
2018-08-27T01:24:04.653Z,0.30
2018-08-27T01:25:05.127Z,0.28
2018-08-27T01:26:05.600Z,0.28
2018-08-27T01:27:06.071Z,0.23
2018-08-27T01:28:06.542Z,0.24
2018-08-27T01:29:07.014Z,0.24
2018-08-27T01:30:07.490Z,0.28
2018-08-27T01:31:07.960Z,0.30
2018-08-27T01:32:08.430Z,0.34
2018-08-27T01:33:08.902Z,0.44
2018-08-27T01:34:09.422Z,0.50
2018-08-27T01:35:09.844Z,0.56
2018-08-27T01:36:10.312Z,0.56
2018-08-27T01:37:10.782Z,0.52
2018-08-27T01:38:11.255Z,0.57
2018-08-27T01:39:11.724Z,0.60
2018-08-27T01:40:12.193Z,0.66
2018-08-27T01:41:12.662Z,0.65
2018-08-27T01:42:13.131Z,0.64
2018-08-27T01:43:13.604Z,0.60
2018-08-27T01:44:14.072Z,0.62
2018-08-27T01:45:14.541Z,0.66
2018-08-27T01:46:15.010Z,0.70
2018-08-27T01:47:15.479Z,0.66
2018-08-27T01:48:15.955Z,0.62
2018-08-27T01:49:16.420Z,0.64
2018-08-27T01:50:16.889Z,0.63
2018-08-27T01:51:17.358Z,0.63
2018-08-27T01:52:17.830Z,0.68
2018-08-27T01:53:18.296Z,0.64
2018-08-27T01:54:18.766Z,0.58
2018-08-27T01:55:19.236Z,0.54
2018-08-27T01:56:19.705Z,0.46
2018-08-27T01:57:20.175Z,0.44
2018-08-27T01:58:20.646Z,0.46
2018-08-27T01:59:21.116Z,0.46
2018-08-27T02:00:21.584Z,0.50
2018-08-27T02:01:22.054Z,0.46
2018-08-27T02:02:22.524Z,0.44
2018-08-27T02:03:22.996Z,0.37
2018-08-27T02:04:23.514Z,0.38
2018-08-27T02:05:23.935Z,0.40
2018-08-27T02:06:24.405Z,0.44
2018-08-27T02:07:24.878Z,0.46
2018-08-27T02:08:25.345Z,0.43
2018-08-27T02:09:25.815Z,0.45
2018-08-27T02:10:26.288Z,0.45
2018-08-27T02:11:26.757Z,0.45
2018-08-27T02:12:27.230Z,0.38
2018-08-27T02:13:27.701Z,0.31
2018-08-27T02:14:28.173Z,0.32
2018-08-27T02:15:28.646Z,0.32
2018-08-27T02:16:29.167Z,0.32
2018-08-27T02:17:29.585Z,0.29
2018-08-27T02:18:30.057Z,0.31
2018-08-27T02:19:30.530Z,0.32
2018-08-27T02:20:30.998Z,0.36
2018-08-27T02:21:31.470Z,0.34
2018-08-27T02:22:31.944Z,0.24
2018-08-27T02:23:32.413Z,0.24
2018-08-27T02:24:32.885Z,0.21
2018-08-27T02:25:33.358Z,0.23
2018-08-27T02:26:33.830Z,0.25
2018-08-27T02:27:34.301Z,0.26
2018-08-27T02:28:34.772Z,0.31
2018-08-27T02:29:35.247Z,0.28
2018-08-27T02:30:35.717Z,0.32
2018-08-27T02:31:36.192Z,0.30
2018-08-27T02:32:36.662Z,0.32
2018-08-27T02:33:37.136Z,0.38
2018-08-27T02:34:37.608Z,0.31
2018-08-27T02:35:38.080Z,0.34
2018-08-27T02:36:38.553Z,0.37
2018-08-27T02:37:39.024Z,0.32
2018-08-27T02:38:39.498Z,0.34
2018-08-27T02:39:39.971Z,0.32
2018-08-27T02:40:40.441Z,0.25
2018-08-27T02:41:40.917Z,0.22
2018-08-27T02:42:41.389Z,0.22
2018-08-27T02:43:41.862Z,0.26
2018-08-27T02:44:42.334Z,0.24
2018-08-27T02:45:42.805Z,0.24
2018-08-27T02:46:43.278Z,0.22
2018-08-27T02:47:43.753Z,0.27
2018-08-27T02:48:44.224Z,0.28
2018-08-27T02:49:44.700Z,0.30
2018-08-27T02:50:45.172Z,0.32
2018-08-27T02:51:45.647Z,0.31
2018-08-27T02:52:46.121Z,0.30
2018-08-27T02:53:46.590Z,0.30
2018-08-27T02:54:47.064Z,0.28
2018-08-27T02:55:47.551Z,0.34
2018-08-27T02:56:48.011Z,0.36
2018-08-27T02:57:48.484Z,0.36
2018-08-27T02:58:48.958Z,0.37
2018-08-27T02:59:49.431Z,0.32
2018-08-27T03:00:49.903Z,0.25
2018-08-27T03:01:50.377Z,0.22
2018-08-27T03:02:50.848Z,0.26
2018-08-27T03:03:51.322Z,0.30
2018-08-27T03:04:51.842Z,0.36
2018-08-27T03:05:52.265Z,0.39
2018-08-27T03:06:52.738Z,0.46
2018-08-27T03:07:53.209Z,0.49
2018-08-27T03:08:53.680Z,0.50
2018-08-27T03:09:54.156Z,0.48
2018-08-27T03:10:54.623Z,0.44
2018-08-27T03:11:55.093Z,0.42
2018-08-27T03:12:55.566Z,0.39
2018-08-27T03:13:56.035Z,0.44
2018-08-27T03:14:56.505Z,0.44
2018-08-27T03:15:56.973Z,0.44
2018-08-27T03:16:57.445Z,0.44
2018-08-27T03:17:57.915Z,0.44
2018-08-27T03:18:58.383Z,0.46
2018-08-27T03:19:58.854Z,0.50
2018-08-27T03:20:59.324Z,0.48
2018-08-27T03:21:59.792Z,0.48
2018-08-27T03:23:00.261Z,0.46
2018-08-27T03:24:00.733Z,0.56
2018-08-27T03:25:01.290Z,0.54
2018-08-27T03:26:01.668Z,0.50
2018-08-27T03:27:02.141Z,0.46
2018-08-27T03:28:02.608Z,0.41
2018-08-27T03:29:03.078Z,0.39
2018-08-27T03:30:03.569Z,0.36
2018-08-27T03:31:04.018Z,0.30
2018-08-27T03:32:04.487Z,0.28
2018-08-27T03:33:04.956Z,0.28
2018-08-27T03:34:05.427Z,0.27
2018-08-27T03:35:05.894Z,0.32
2018-08-27T03:36:06.365Z,0.30
2018-08-27T03:37:06.834Z,0.30
2018-08-27T03:38:07.303Z,0.28
2018-08-27T03:39:07.774Z,0.32
2018-08-27T03:40:08.245Z,0.32
2018-08-27T03:41:08.713Z,0.34
2018-08-27T03:42:09.184Z,0.36
2018-08-27T03:43:09.653Z,0.36
2018-08-27T03:44:10.124Z,0.36
2018-08-27T03:45:10.595Z,0.34
2018-08-27T03:46:11.066Z,0.34
2018-08-27T03:47:11.535Z,0.35
2018-08-27T03:48:12.008Z,0.36
2018-08-27T03:49:12.480Z,0.34
2018-08-27T03:50:12.947Z,0.33
2018-08-27T03:51:13.418Z,0.34
2018-08-27T03:52:13.888Z,0.40
2018-08-27T03:53:14.361Z,0.40
2018-08-27T03:54:14.832Z,0.45
2018-08-27T03:55:15.303Z,0.46
2018-08-27T03:56:15.773Z,0.43
2018-08-27T03:57:16.244Z,0.36
2018-08-27T03:58:16.716Z,0.36
2018-08-27T03:59:17.189Z,0.34
2018-08-27T04:00:17.659Z,0.34
2018-08-27T04:01:18.132Z,0.35
2018-08-27T04:02:18.603Z,0.38
2018-08-27T04:03:19.074Z,0.42
2018-08-27T04:04:19.550Z,0.46
2018-08-27T04:05:20.070Z,0.54
2018-08-27T04:06:20.495Z,0.61
2018-08-27T04:07:20.961Z,0.64
2018-08-27T04:08:21.434Z,0.64
2018-08-27T04:09:21.905Z,0.64
2018-08-27T04:10:22.380Z,0.62
2018-08-27T04:11:22.851Z,0.62
2018-08-27T04:12:23.325Z,0.60
2018-08-27T04:13:23.793Z,0.63
2018-08-27T04:14:24.265Z,0.66
2018-08-27T04:15:24.738Z,0.64
2018-08-27T04:16:25.212Z,0.68
2018-08-27T04:17:25.685Z,0.74
2018-08-27T04:18:26.159Z,0.80
2018-08-27T04:19:26.630Z,0.84
2018-08-27T04:20:27.103Z,0.86
2018-08-27T04:21:27.576Z,0.92
2018-08-27T04:22:28.048Z,0.99
2018-08-27T04:23:28.519Z,1.00
2018-08-27T04:24:28.993Z,1.02
2018-08-27T04:25:29.466Z,1.08
2018-08-27T04:26:29.939Z,1.10
2018-08-27T04:27:30.413Z,1.15
2018-08-27T04:28:30.884Z,1.20
2018-08-27T04:29:31.357Z,1.23
2018-08-27T04:30:31.832Z,1.23
2018-08-27T04:31:32.304Z,1.22
2018-08-27T04:32:32.777Z,1.18
2018-08-27T04:33:33.249Z,1.20
2018-08-27T04:34:33.723Z,1.19
2018-08-27T04:35:34.248Z,1.16
2018-08-27T04:36:34.669Z,1.18
2018-08-27T04:37:35.141Z,1.19
2018-08-27T04:38:35.617Z,1.16
2018-08-27T04:39:36.089Z,1.15
2018-08-27T04:40:36.562Z,1.13
2018-08-27T04:41:37.034Z,1.19
2018-08-27T04:42:37.538Z,1.18
2018-08-27T04:43:37.983Z,1.15
2018-08-27T04:44:38.455Z,1.14
2018-08-27T04:45:38.927Z,1.16
2018-08-27T04:46:39.405Z,1.18
2018-08-27T04:47:39.876Z,1.20
2018-08-27T04:48:40.351Z,1.25
2018-08-27T04:49:40.820Z,1.30
2018-08-27T04:50:41.295Z,1.36
2018-08-27T04:51:41.767Z,1.47
2018-08-27T04:52:42.243Z,1.53
2018-08-27T04:53:42.714Z,1.48
2018-08-27T04:54:43.200Z,1.44
2018-08-27T04:55:43.664Z,1.37
2018-08-27T04:56:44.135Z,1.34
2018-08-27T04:57:44.608Z,1.35
2018-08-27T04:58:45.081Z,1.44
2018-08-27T04:59:45.552Z,1.47
2018-08-27T05:00:46.024Z,1.42
2018-08-27T05:01:46.497Z,1.38
2018-08-27T05:02:46.970Z,1.38
2018-08-27T05:03:47.441Z,1.35
2018-08-27T05:04:47.913Z,1.24
2018-08-27T05:05:48.386Z,1.20
2018-08-27T05:06:48.856Z,1.17
2018-08-27T05:07:49.327Z,1.12
2018-08-27T05:08:49.802Z,1.14
2018-08-27T05:09:50.267Z,1.22
2018-08-27T05:10:50.739Z,1.32
2018-08-27T05:11:51.210Z,1.33
2018-08-27T05:12:51.680Z,1.35
2018-08-27T05:13:52.150Z,1.35
2018-08-27T05:14:52.619Z,1.24
2018-08-27T05:15:53.089Z,1.18
2018-08-27T05:16:53.560Z,1.12
2018-08-27T05:17:54.028Z,1.08
2018-08-27T05:18:54.501Z,1.14
2018-08-27T05:19:54.971Z,1.20
2018-08-27T05:20:55.438Z,1.24
2018-08-27T05:21:55.909Z,1.28
2018-08-27T05:22:56.379Z,1.34
2018-08-27T05:23:56.848Z,1.34
2018-08-27T05:24:57.318Z,1.39
2018-08-27T05:25:57.786Z,1.38
2018-08-27T05:26:58.256Z,1.36
2018-08-27T05:27:58.727Z,1.44
2018-08-27T05:28:59.195Z,1.49
2018-08-27T05:29:59.665Z,1.38
2018-08-27T05:31:00.174Z,1.31
2018-08-27T05:32:00.605Z,1.36
2018-08-27T05:33:01.075Z,1.36
2018-08-27T05:34:01.544Z,1.34
2018-08-27T05:35:02.013Z,1.36
2018-08-27T05:36:02.484Z,1.40
2018-08-27T05:37:02.960Z,1.43
2018-08-27T05:38:03.475Z,1.46
2018-08-27T05:39:03.897Z,1.46
2018-08-27T05:40:04.367Z,1.53
2018-08-27T05:41:04.841Z,1.58
2018-08-27T05:42:05.307Z,1.57
2018-08-27T05:43:05.776Z,1.54
2018-08-27T05:44:06.248Z,1.56
2018-08-27T05:45:06.718Z,1.66
2018-08-27T05:46:07.241Z,1.72
2018-08-27T05:47:07.661Z,1.70
2018-08-27T05:48:08.134Z,1.75
2018-08-27T05:49:08.602Z,1.77
2018-08-27T05:50:09.075Z,1.78
2018-08-27T05:51:09.546Z,1.77
2018-08-27T05:52:10.044Z,1.84
2018-08-27T05:53:10.496Z,1.92
2018-08-27T05:54:10.960Z,2.02
2018-08-27T05:55:11.433Z,2.10
2018-08-27T05:56:11.904Z,2.05
2018-08-27T05:57:12.377Z,2.00
2018-08-27T05:58:12.849Z,2.01
2018-08-27T05:59:13.321Z,2.00
2018-08-27T06:00:13.793Z,2.05
2018-08-27T06:01:14.265Z,2.07
2018-08-27T06:02:14.741Z,2.08
2018-08-27T06:03:15.213Z,2.07
2018-08-27T06:04:15.684Z,2.03
2018-08-27T06:05:16.155Z,2.08
2018-08-27T06:06:16.628Z,2.10
2018-08-27T06:07:17.100Z,2.04
2018-08-27T06:08:17.576Z,2.02
2018-08-27T06:09:18.173Z,2.05
2018-08-27T06:10:18.519Z,2.05
2018-08-27T06:11:19.088Z,1.97
2018-08-27T06:12:19.468Z,1.91
2018-08-27T06:13:19.940Z,1.94
2018-08-27T06:14:20.414Z,1.88
2018-08-27T06:15:20.887Z,1.87
2018-08-27T06:16:21.551Z,1.96
2018-08-27T06:17:21.836Z,2.04
2018-08-27T06:18:22.306Z,2.09
2018-08-27T06:19:22.784Z,2.05
2018-08-27T06:20:23.259Z,2.17
2018-08-27T06:21:23.731Z,2.12
2018-08-27T06:22:24.237Z,2.11
2018-08-27T06:23:24.677Z,2.04
2018-08-27T06:24:25.150Z,2.12
2018-08-27T06:25:25.624Z,2.24
2018-08-27T06:26:26.095Z,2.31
2018-08-27T06:27:26.570Z,2.31
2018-08-27T06:28:27.045Z,2.38
2018-08-27T06:29:27.516Z,2.40
2018-08-27T06:30:27.989Z,2.48
2018-08-27T06:31:28.512Z,2.58
2018-08-27T06:32:28.985Z,2.60
2018-08-27T06:33:29.404Z,2.60
2018-08-27T06:34:29.877Z,2.64
2018-08-27T06:35:30.347Z,2.59
2018-08-27T06:36:30.883Z,2.56
2018-08-27T06:37:31.294Z,2.56
2018-08-27T06:38:31.782Z,2.60
2018-08-27T06:39:32.236Z,2.57
2018-08-27T06:40:32.704Z,2.50
2018-08-27T06:41:33.177Z,2.46
2018-08-27T06:42:33.646Z,2.50
2018-08-27T06:43:34.115Z,2.50
2018-08-27T06:44:34.631Z,2.51
2018-08-27T06:45:35.060Z,2.42
2018-08-27T06:46:35.528Z,2.31
2018-08-27T06:47:35.999Z,2.26
2018-08-27T06:48:36.469Z,2.20
2018-08-27T06:49:36.939Z,2.24
2018-08-27T06:50:37.408Z,2.30
2018-08-27T06:51:37.882Z,2.34
2018-08-27T06:52:38.350Z,2.42
2018-08-27T06:53:38.822Z,2.46
2018-08-27T06:54:39.289Z,2.44
2018-08-27T06:55:39.762Z,2.46
2018-08-27T06:56:40.260Z,2.47
2018-08-27T06:57:40.702Z,2.50
2018-08-27T06:58:41.174Z,2.60
2018-08-27T06:59:41.642Z,2.74
2018-08-27T07:00:42.120Z,2.84
2018-08-27T07:01:42.589Z,2.98
2018-08-27T07:02:43.056Z,2.96
2018-08-27T07:03:43.529Z,2.85
2018-08-27T07:04:44.004Z,2.84
2018-08-27T07:05:44.471Z,2.86
2018-08-27T07:06:44.992Z,2.76
2018-08-27T07:07:45.474Z,2.62
2018-08-27T07:08:45.889Z,2.63
2018-08-27T07:09:46.361Z,2.68
2018-08-27T07:10:46.835Z,2.63
2018-08-27T07:11:47.399Z,2.58
2018-08-27T07:12:47.776Z,2.46
2018-08-27T07:13:48.247Z,2.42
2018-08-27T07:14:48.718Z,2.53
2018-08-27T07:15:49.194Z,2.54
2018-08-27T07:16:49.669Z,2.57
2018-08-27T07:17:50.140Z,2.59
2018-08-27T07:18:50.616Z,2.62
2018-08-27T07:19:51.084Z,2.63
2018-08-27T07:20:51.558Z,2.63
2018-08-27T07:21:52.031Z,2.70
2018-08-27T07:22:52.505Z,2.72
2018-08-27T07:23:52.983Z,2.70
2018-08-27T07:24:53.453Z,2.77
2018-08-27T07:25:53.927Z,2.81
2018-08-27T07:26:54.400Z,2.86
2018-08-27T07:27:54.876Z,2.88
2018-08-27T07:28:55.348Z,2.82
2018-08-27T07:29:55.824Z,2.79
2018-08-27T07:30:56.296Z,2.82
2018-08-27T07:31:56.821Z,2.82
2018-08-27T07:32:57.244Z,2.85
2018-08-27T07:33:57.718Z,2.82
2018-08-27T07:34:58.192Z,2.86
2018-08-27T07:35:58.689Z,2.89
2018-08-27T07:36:59.192Z,2.86
2018-08-27T07:37:59.612Z,2.88
2018-08-27T07:39:00.087Z,2.96
2018-08-27T07:40:00.558Z,3.00
2018-08-27T07:41:01.030Z,3.03
2018-08-27T07:42:01.504Z,3.10
2018-08-27T07:43:01.977Z,3.10
2018-08-27T07:44:02.450Z,3.08
2018-08-27T07:45:02.922Z,3.08
2018-08-27T07:46:03.395Z,3.06
2018-08-27T07:47:03.863Z,3.08
2018-08-27T07:48:04.336Z,3.12
2018-08-27T07:49:04.806Z,3.11
2018-08-27T07:50:05.281Z,3.11
2018-08-27T07:51:05.782Z,3.18
2018-08-27T07:52:06.261Z,3.18
2018-08-27T07:53:06.692Z,3.19
2018-08-27T07:54:07.163Z,3.20
2018-08-27T07:55:07.634Z,3.24
2018-08-27T07:56:08.104Z,3.29
2018-08-27T07:57:08.576Z,3.34
2018-08-27T07:58:09.047Z,3.40
2018-08-27T07:59:09.514Z,3.40
2018-08-27T08:00:09.984Z,3.42
2018-08-27T08:01:10.454Z,3.42
2018-08-27T08:02:10.925Z,3.40
2018-08-27T08:03:11.395Z,3.40
2018-08-27T08:04:11.868Z,3.42
2018-08-27T08:05:12.339Z,3.41
2018-08-27T08:06:12.807Z,3.44
2018-08-27T08:07:13.388Z,3.46
2018-08-27T08:08:13.748Z,3.44
2018-08-27T08:09:14.220Z,3.42
2018-08-27T08:10:14.693Z,3.42
2018-08-27T08:11:15.160Z,3.44
2018-08-27T08:12:15.633Z,3.45
2018-08-27T08:13:16.104Z,3.42
2018-08-27T08:14:16.576Z,3.48
2018-08-27T08:15:17.045Z,3.56
2018-08-27T08:16:17.516Z,3.54
2018-08-27T08:17:17.989Z,3.49
2018-08-27T08:18:18.464Z,3.49
2018-08-27T08:19:18.934Z,3.49
2018-08-27T08:20:19.409Z,3.50
2018-08-27T08:21:19.877Z,3.54
2018-08-27T08:22:20.349Z,3.60
2018-08-27T08:23:20.824Z,3.62
2018-08-27T08:24:21.296Z,3.64
2018-08-27T08:25:21.769Z,3.65
2018-08-27T08:26:22.245Z,3.68
2018-08-27T08:27:22.717Z,3.65
2018-08-27T08:28:23.190Z,3.62
2018-08-27T08:29:23.663Z,3.63
2018-08-27T08:30:24.140Z,3.63
2018-08-27T08:31:24.613Z,3.64
2018-08-27T08:32:25.088Z,3.69
2018-08-27T08:33:25.562Z,3.68
2018-08-27T08:34:26.041Z,3.63
2018-08-27T08:35:26.511Z,3.62
2018-08-27T08:36:26.989Z,3.62
2018-08-27T08:37:27.516Z,3.58
2018-08-27T08:38:27.943Z,3.56
2018-08-27T08:39:28.415Z,3.55
2018-08-27T08:40:28.891Z,3.50
2018-08-27T08:41:29.370Z,3.46
2018-08-27T08:42:29.846Z,3.50
2018-08-27T08:43:30.322Z,3.56
2018-08-27T08:44:30.796Z,3.59
2018-08-27T08:45:31.273Z,3.66
2018-08-27T08:46:31.750Z,3.85
2018-08-27T08:47:32.224Z,3.90
2018-08-27T08:48:32.699Z,3.96
2018-08-27T08:49:33.178Z,4.00
2018-08-27T08:50:33.652Z,3.94
2018-08-27T08:51:34.129Z,3.83
2018-08-27T08:52:34.652Z,3.72
2018-08-27T08:53:35.123Z,3.68
2018-08-27T08:54:35.551Z,3.65
2018-08-27T08:55:36.023Z,3.65
2018-08-27T08:56:36.501Z,3.60
2018-08-27T08:57:36.973Z,3.56
2018-08-27T08:58:37.449Z,3.60
2018-08-27T08:59:37.920Z,3.57
2018-08-27T09:00:38.394Z,3.62
2018-08-27T09:01:38.920Z,3.66
2018-08-27T09:02:39.341Z,3.67
2018-08-27T09:03:39.814Z,3.64
2018-08-27T09:04:40.287Z,3.63
2018-08-27T09:05:40.759Z,3.71
2018-08-27T09:06:41.232Z,3.70
2018-08-27T09:07:41.705Z,3.70
2018-08-27T09:08:42.176Z,3.78
2018-08-27T09:09:42.647Z,3.80
2018-08-27T09:10:43.124Z,3.79
2018-08-27T09:11:43.598Z,3.88
2018-08-27T09:12:44.061Z,3.94
2018-08-27T09:13:44.535Z,4.02
2018-08-27T09:14:45.008Z,4.02
2018-08-27T09:15:45.477Z,4.14
2018-08-27T09:16:45.959Z,4.35
2018-08-27T09:17:46.419Z,4.46
2018-08-27T09:18:46.890Z,4.51
2018-08-27T09:19:47.360Z,4.54
2018-08-27T09:20:47.829Z,4.44
2018-08-27T09:21:48.302Z,4.28
2018-08-27T09:22:48.773Z,4.12
2018-08-27T09:23:49.260Z,4.02
2018-08-27T09:24:49.715Z,3.92
2018-08-27T09:25:50.185Z,3.90
2018-08-27T09:26:50.658Z,4.04
2018-08-27T09:27:51.129Z,4.06
2018-08-27T09:28:51.600Z,4.09
2018-08-27T09:29:52.073Z,4.15
2018-08-27T09:30:52.544Z,4.28
2018-08-27T09:31:53.014Z,4.34
2018-08-27T09:32:53.486Z,4.24
2018-08-27T09:33:53.959Z,4.21
2018-08-27T09:34:54.430Z,4.12
2018-08-27T09:35:54.902Z,4.08
2018-08-27T09:36:55.401Z,4.14
2018-08-27T09:37:55.899Z,4.04
2018-08-27T09:38:56.323Z,4.09
2018-08-27T09:39:56.793Z,4.16
2018-08-27T09:40:57.267Z,4.21
2018-08-27T09:41:57.741Z,4.26
2018-08-27T09:42:58.216Z,4.28
2018-08-27T09:43:58.691Z,4.26
2018-08-27T09:44:59.161Z,4.31
2018-08-27T09:45:59.677Z,4.41
2018-08-27T09:47:00.162Z,4.57
2018-08-27T09:48:00.586Z,4.74
2018-08-27T09:49:01.057Z,4.80
2018-08-27T09:50:01.535Z,4.98
2018-08-27T09:51:02.009Z,5.03
2018-08-27T09:52:02.482Z,5.20
2018-08-27T09:53:02.966Z,5.28
2018-08-27T09:54:03.431Z,5.30
2018-08-27T09:55:03.906Z,5.14
2018-08-27T09:56:04.380Z,5.02
2018-08-27T09:57:04.856Z,4.96
2018-08-27T09:58:05.383Z,4.88
2018-08-27T09:59:05.874Z,4.84
2018-08-27T10:00:06.279Z,4.80
2018-08-27T10:01:06.753Z,4.87
2018-08-27T10:02:07.228Z,4.94
2018-08-27T10:03:07.703Z,4.86
2018-08-27T10:04:08.176Z,4.74
2018-08-27T10:05:08.651Z,4.71
2018-08-27T10:06:09.123Z,4.67
2018-08-27T10:07:09.598Z,4.66
2018-08-27T10:08:10.070Z,4.70
2018-08-27T10:09:10.592Z,4.72
2018-08-27T10:10:11.017Z,4.81
2018-08-27T10:11:11.491Z,4.86
2018-08-27T10:12:11.963Z,4.93
2018-08-27T10:13:12.435Z,5.02
2018-08-27T10:14:12.910Z,5.02
2018-08-27T10:15:13.381Z,4.94
2018-08-27T10:16:13.855Z,4.90
2018-08-27T10:17:14.325Z,4.88
2018-08-27T10:18:14.799Z,4.90
2018-08-27T10:19:15.273Z,4.86
2018-08-27T10:20:15.743Z,4.82
2018-08-27T10:21:16.214Z,4.90
2018-08-27T10:22:16.792Z,5.06
2018-08-27T10:23:17.162Z,5.09
2018-08-27T10:24:17.631Z,4.96
2018-08-27T10:25:18.102Z,4.85
2018-08-27T10:26:18.613Z,4.81
2018-08-27T10:27:19.047Z,4.82
2018-08-27T10:28:19.516Z,4.76
2018-08-27T10:29:19.989Z,4.85
2018-08-27T10:30:20.459Z,4.94
2018-08-27T10:31:20.931Z,4.88
2018-08-27T10:32:21.400Z,4.85
2018-08-27T10:33:21.873Z,4.80
2018-08-27T10:34:22.341Z,4.66
2018-08-27T10:35:22.814Z,4.52
2018-08-27T10:36:23.283Z,4.48
2018-08-27T10:37:23.754Z,4.78
2018-08-27T10:38:24.224Z,4.86
2018-08-27T10:39:24.695Z,4.75
2018-08-27T10:40:25.164Z,4.69
2018-08-27T10:41:25.635Z,4.68
2018-08-27T10:42:26.106Z,4.62
2018-08-27T10:43:26.630Z,4.60
2018-08-27T10:44:27.048Z,4.66
2018-08-27T10:45:27.520Z,4.64
2018-08-27T10:46:27.991Z,4.66
2018-08-27T10:47:28.459Z,4.72
2018-08-27T10:48:28.929Z,4.62
2018-08-27T10:49:29.400Z,4.52
2018-08-27T10:50:29.904Z,4.48
2018-08-27T10:51:30.342Z,4.47
2018-08-27T10:52:30.813Z,4.46
2018-08-27T10:53:31.283Z,4.42
2018-08-27T10:54:31.756Z,4.42
2018-08-27T10:55:32.227Z,4.47
2018-08-27T10:56:32.700Z,4.48
2018-08-27T10:57:33.172Z,4.48
2018-08-27T10:59:34.118Z,4.50
2018-08-27T11:00:34.587Z,4.55
2018-08-27T11:01:35.060Z,4.58
2018-08-27T11:02:35.534Z,4.62
2018-08-27T11:03:36.008Z,4.70
2018-08-27T11:04:36.481Z,4.70
2018-08-27T11:05:36.955Z,4.71
2018-08-27T11:06:37.438Z,4.68
2018-08-27T11:07:37.904Z,4.70
2018-08-27T11:08:38.427Z,4.85
2018-08-27T11:09:38.850Z,4.84
2018-08-27T11:10:39.352Z,5.00
2018-08-27T11:11:39.802Z,5.18
2018-08-27T11:12:40.274Z,5.16
2018-08-27T11:13:40.752Z,5.16
2018-08-27T11:14:41.225Z,5.16
2018-08-27T11:15:41.700Z,5.16
2018-08-27T11:16:42.173Z,5.20
2018-08-27T11:17:42.650Z,5.24
2018-08-27T11:18:43.125Z,5.08
2018-08-27T11:19:43.730Z,5.08
2018-08-27T11:20:44.128Z,5.24
2018-08-27T11:21:44.548Z,5.30
2018-08-27T11:22:45.022Z,5.08
2018-08-27T11:23:45.499Z,5.12
2018-08-27T11:24:45.972Z,5.04
2018-08-27T11:25:46.446Z,4.92
2018-08-27T11:26:47.098Z,5.01
2018-08-27T11:27:47.399Z,4.87
2018-08-27T11:28:47.870Z,4.82
2018-08-27T11:29:48.345Z,4.82
2018-08-27T11:30:48.816Z,4.72
2018-08-27T11:31:49.295Z,4.76
2018-08-27T11:32:49.787Z,4.82
2018-08-27T11:33:50.237Z,4.80
2018-08-27T11:34:50.710Z,4.78
2018-08-27T11:35:51.184Z,4.74
2018-08-27T11:36:51.660Z,4.66
2018-08-27T11:37:52.129Z,4.60
2018-08-27T11:38:52.604Z,4.58
2018-08-27T11:39:53.078Z,4.62
2018-08-27T11:40:53.549Z,4.62
2018-08-27T11:41:54.021Z,4.60
2018-08-27T11:42:54.492Z,4.60
2018-08-27T11:43:54.966Z,4.56
2018-08-27T11:44:55.437Z,4.58
2018-08-27T11:45:55.915Z,4.66
2018-08-27T11:46:56.380Z,4.68
2018-08-27T11:47:56.854Z,4.70
2018-08-27T11:48:57.325Z,4.75
2018-08-27T11:49:57.801Z,4.78
2018-08-27T11:50:58.369Z,5.00
2018-08-27T11:51:58.743Z,5.08
2018-08-27T11:52:59.209Z,5.12
2018-08-27T11:53:59.682Z,4.98
2018-08-27T11:55:00.227Z,4.92
2018-08-27T11:56:00.624Z,4.86
2018-08-27T11:57:01.094Z,4.86
2018-08-27T11:58:01.567Z,4.88
2018-08-27T11:59:02.043Z,4.86
2018-08-27T12:00:02.510Z,4.94
2018-08-27T12:01:02.992Z,5.08
2018-08-27T12:02:03.498Z,5.28
2018-08-27T12:03:03.922Z,5.38
2018-08-27T12:04:04.392Z,5.52
2018-08-27T12:05:04.864Z,5.69
2018-08-27T12:06:05.334Z,5.88
2018-08-27T12:07:05.805Z,6.02
2018-08-27T12:08:06.278Z,6.00
2018-08-27T12:09:06.748Z,6.00
2018-08-27T12:10:07.223Z,6.00
2018-08-27T12:11:07.695Z,6.02
2018-08-27T12:12:08.170Z,6.03
2018-08-27T12:13:08.635Z,6.12
2018-08-27T12:14:09.109Z,6.30
2018-08-27T12:15:09.785Z,6.18
2018-08-27T12:16:10.055Z,5.99
2018-08-27T12:17:10.530Z,5.98
2018-08-27T12:18:11.001Z,6.06
2018-08-27T12:19:11.476Z,5.97
2018-08-27T12:20:11.947Z,5.96
2018-08-27T12:21:12.423Z,5.84
2018-08-27T12:22:12.894Z,5.78
2018-08-27T12:23:13.368Z,5.80
2018-08-27T12:24:13.843Z,5.67
2018-08-27T12:25:14.319Z,5.66
2018-08-27T12:26:14.791Z,5.56
2018-08-27T12:27:15.270Z,5.51
2018-08-27T12:28:15.744Z,5.57
2018-08-27T12:29:16.241Z,5.70
2018-08-27T12:30:16.691Z,5.62
2018-08-27T12:31:17.168Z,5.72
2018-08-27T12:32:17.644Z,6.06
2018-08-27T12:33:18.118Z,6.42
2018-08-27T12:34:18.593Z,6.28
2018-08-27T12:35:19.070Z,6.14
2018-08-27T12:36:19.544Z,6.30
2018-08-27T12:37:20.018Z,6.58
2018-08-27T12:38:20.495Z,6.76
2018-08-27T12:39:20.968Z,6.67
2018-08-27T12:40:21.447Z,6.28
2018-08-27T12:41:21.922Z,6.05
2018-08-27T12:42:22.394Z,5.92
2018-08-27T12:43:22.869Z,6.00
2018-08-27T12:44:23.344Z,6.04
2018-08-27T12:45:23.817Z,5.99
2018-08-27T12:46:24.292Z,5.95
2018-08-27T12:47:24.768Z,6.04
2018-08-27T12:48:25.240Z,6.13
2018-08-27T12:49:25.716Z,6.23
2018-08-27T12:50:26.189Z,6.30
2018-08-27T12:51:26.722Z,6.18
2018-08-27T12:52:27.138Z,6.12
2018-08-27T12:53:27.613Z,6.10
2018-08-27T12:54:28.089Z,6.09
2018-08-27T12:55:28.558Z,6.17
2018-08-27T12:56:29.033Z,6.18
2018-08-27T12:57:29.504Z,6.18
2018-08-27T12:58:30.021Z,5.93
2018-08-27T12:59:30.453Z,5.82
2018-08-27T13:00:30.926Z,6.02
2018-08-27T13:01:31.396Z,6.12
2018-08-27T13:02:31.870Z,6.09
2018-08-27T13:03:32.345Z,6.05
2018-08-27T13:04:32.817Z,6.16
2018-08-27T13:05:33.332Z,6.26
2018-08-27T13:06:33.761Z,6.18
2018-08-27T13:07:34.290Z,6.17
2018-08-27T13:08:34.706Z,6.11
2018-08-27T13:09:35.231Z,6.04
2018-08-27T13:10:35.650Z,5.90
2018-08-27T13:11:36.124Z,5.85
2018-08-27T13:12:36.671Z,5.88
2018-08-27T13:13:37.067Z,5.86
2018-08-27T13:14:37.537Z,5.77
2018-08-27T13:15:38.009Z,5.78
2018-08-27T13:16:38.481Z,5.96
2018-08-27T13:17:38.954Z,6.10
2018-08-27T13:18:39.424Z,6.14
2018-08-27T13:19:39.896Z,6.16
2018-08-27T13:20:40.374Z,6.14
2018-08-27T13:21:40.839Z,6.12
2018-08-27T13:22:41.313Z,6.04
2018-08-27T13:23:41.784Z,6.20